createdAt,value
2018-04-14T00:00:23.064Z,86.30
2018-04-14T00:01:22.797Z,86.40
2018-04-14T00:02:22.820Z,87.08
2018-04-14T00:03:22.754Z,86.99
2018-04-14T00:04:22.782Z,86.60
2018-04-14T00:05:22.866Z,87.23
2018-04-14T00:06:22.688Z,87.43
2018-04-14T00:07:22.666Z,87.13
2018-04-14T00:08:22.653Z,87.13
2018-04-14T00:09:22.652Z,87.13
2018-04-14T00:10:22.701Z,87.58
2018-04-14T00:11:22.558Z,87.87
2018-04-14T00:12:22.555Z,87.68
2018-04-14T00:13:22.524Z,88.40
2018-04-14T00:14:22.506Z,88.30
2018-04-14T00:15:23.063Z,88.26
2018-04-14T00:16:22.551Z,88.55
2018-04-14T00:17:22.407Z,88.35
2018-04-14T00:18:22.418Z,87.68
2018-04-14T00:19:22.401Z,87.58
2018-04-14T00:20:23.519Z,88.06
2018-04-14T00:21:23.148Z,88.16
2018-04-14T00:22:22.444Z,87.91
2018-04-14T00:23:22.293Z,87.87
2018-04-14T00:24:23.607Z,87.68
2018-04-14T00:25:25.009Z,87.48
2018-04-14T00:26:23.167Z,87.38
2018-04-14T00:27:22.983Z,87.72
2018-04-14T00:28:23.088Z,87.58
2018-04-14T00:29:23.128Z,87.43
2018-04-14T00:30:22.829Z,87.13
2018-04-14T00:31:23.660Z,87.23
2018-04-14T00:32:23.188Z,87.43
2018-04-14T00:33:22.529Z,86.90
2018-04-14T00:34:22.747Z,86.65
2018-04-14T00:35:23.169Z,86.36
2018-04-14T00:36:22.354Z,86.46
2018-04-14T00:37:23.164Z,86.99
2018-04-14T00:38:23.645Z,86.85
2018-04-14T00:39:22.912Z,86.85
2018-04-14T00:40:21.878Z,86.71
2018-04-14T00:41:21.921Z,86.99
2018-04-14T00:42:21.914Z,87.09
2018-04-14T00:43:21.824Z,86.99
2018-04-14T00:44:21.751Z,86.90
2018-04-14T00:45:22.430Z,87.19
2018-04-14T00:46:22.471Z,87.29
2018-04-14T00:47:21.842Z,87.48
2018-04-14T00:48:21.651Z,87.82
2018-04-14T00:49:21.621Z,87.34
2018-04-14T00:50:21.810Z,87.82
2018-04-14T00:51:22.094Z,87.63
2018-04-14T00:52:21.695Z,87.24
2018-04-14T00:53:21.525Z,87.34
2018-04-14T00:54:21.487Z,88.02
2018-04-14T00:55:21.466Z,87.63
2018-04-14T00:56:21.542Z,87.73
2018-04-14T00:57:22.349Z,87.54
2018-04-14T00:58:21.790Z,87.15
2018-04-14T00:59:21.430Z,86.95
2018-04-14T01:00:21.829Z,86.90
2018-04-14T01:01:21.649Z,86.57
2018-04-14T01:02:21.496Z,86.32
2018-04-14T01:03:21.646Z,86.32
2018-04-14T01:04:21.317Z,85.93
2018-04-14T01:05:21.307Z,85.93
2018-04-14T01:06:21.988Z,86.41
2018-04-14T01:07:21.225Z,86.51
2018-04-14T01:08:21.462Z,86.71
2018-04-14T01:09:21.159Z,86.37
2018-04-14T01:10:21.073Z,86.41
2018-04-14T01:11:21.590Z,86.37
2018-04-14T01:12:21.028Z,86.47
2018-04-14T01:13:21.313Z,85.79
2018-04-14T01:14:21.196Z,86.08
2018-04-14T01:15:20.943Z,86.08
2018-04-14T01:16:21.373Z,85.79
2018-04-14T01:17:21.223Z,85.79
2018-04-14T01:18:21.611Z,85.69
2018-04-14T01:19:21.171Z,85.79
2018-04-14T01:20:21.000Z,85.40
2018-04-14T01:21:20.894Z,85.60
2018-04-14T01:22:21.268Z,85.40
2018-04-14T01:23:21.377Z,85.99
2018-04-14T01:24:21.253Z,85.89
2018-04-14T01:25:20.984Z,85.89
2018-04-14T01:26:20.874Z,85.89
2018-04-14T01:27:20.961Z,85.60
2018-04-14T01:28:20.707Z,85.60
2018-04-14T01:29:21.141Z,85.69
2018-04-14T01:30:20.727Z,85.99
2018-04-14T01:31:20.717Z,85.40
2018-04-14T01:32:21.271Z,85.99
2018-04-14T01:33:20.695Z,85.60
2018-04-14T01:34:21.347Z,85.40
2018-04-14T01:35:20.718Z,85.60
2018-04-14T01:36:20.696Z,85.21
2018-04-14T01:37:20.888Z,85.79
2018-04-14T01:38:20.466Z,85.50
2018-04-14T01:39:20.506Z,85.50
2018-04-14T01:40:20.415Z,85.02
2018-04-14T01:41:21.063Z,85.50
2018-04-14T01:42:20.277Z,85.40
2018-04-14T01:43:20.242Z,85.11
2018-04-14T01:44:20.233Z,84.82
2018-04-14T01:45:20.763Z,85.21
2018-04-14T01:46:20.293Z,85.79
2018-04-14T01:47:20.735Z,85.89
2018-04-14T01:48:20.156Z,85.85
2018-04-14T01:49:20.154Z,85.94
2018-04-14T01:50:20.203Z,85.36
2018-04-14T01:51:20.111Z,84.64
2018-04-14T01:52:20.490Z,85.03
2018-04-14T01:53:20.026Z,85.28
2018-04-14T01:54:19.985Z,85.57
2018-04-14T01:55:19.959Z,84.56
2018-04-14T01:56:20.658Z,85.04
2018-04-14T01:57:19.875Z,85.91
2018-04-14T01:58:20.379Z,86.01
2018-04-14T01:59:19.842Z,86.30
2018-04-14T02:00:19.868Z,86.59
2018-04-14T02:01:20.577Z,87.13
2018-04-14T02:02:20.296Z,87.41
2018-04-14T02:03:19.684Z,87.90
2018-04-14T02:04:19.704Z,88.09
2018-04-14T02:05:19.670Z,88.67
2018-04-14T02:06:20.282Z,88.81
2018-04-14T02:07:20.179Z,89.35
2018-04-14T02:08:19.574Z,90.36
2018-04-14T02:09:19.581Z,90.51
2018-04-14T02:10:19.565Z,90.32
2018-04-14T02:11:19.615Z,90.03
2018-04-14T02:12:19.685Z,90.41
2018-04-14T02:13:19.468Z,90.41
2018-04-14T02:14:19.656Z,90.03
2018-04-14T02:15:19.852Z,90.70
2018-04-14T02:16:19.379Z,90.70
2018-04-14T02:17:19.892Z,91.09
2018-04-14T02:18:19.417Z,90.99
2018-04-14T02:19:19.917Z,90.90
2018-04-14T02:20:19.268Z,90.61
2018-04-14T02:21:19.248Z,90.90
2018-04-14T02:22:19.246Z,91.38
2018-04-14T02:23:19.310Z,91.67
2018-04-14T02:24:19.723Z,91.53
2018-04-14T02:25:19.705Z,92.21
2018-04-14T02:26:19.121Z,92.40
2018-04-14T02:27:19.086Z,92.93
2018-04-14T02:28:19.217Z,92.64
2018-04-14T02:29:19.016Z,92.74
2018-04-14T02:30:19.021Z,92.93
2018-04-14T02:31:18.979Z,93.02
2018-04-14T02:32:19.477Z,93.02
2018-04-14T02:33:19.568Z,93.02
2018-04-14T02:34:18.938Z,92.83
2018-04-14T02:35:18.944Z,92.44
2018-04-14T02:36:19.391Z,92.64
2018-04-14T02:37:18.803Z,92.93
2018-04-14T02:38:19.059Z,92.64
2018-04-14T02:39:18.872Z,92.54
2018-04-14T02:40:19.441Z,93.08
2018-04-14T02:41:19.352Z,93.08
2018-04-14T02:42:18.830Z,92.83
2018-04-14T02:43:18.711Z,92.40
2018-04-14T02:44:18.812Z,91.82
2018-04-14T02:45:18.605Z,91.91
2018-04-14T02:46:18.583Z,91.63
2018-04-14T02:47:18.542Z,91.63
2018-04-14T02:48:18.537Z,91.43
2018-04-14T02:49:18.503Z,91.63
2018-04-14T02:50:18.496Z,91.63
2018-04-14T02:51:18.442Z,91.72
2018-04-14T02:52:18.439Z,91.24
2018-04-14T02:53:18.357Z,91.05
2018-04-14T02:54:18.861Z,90.85
2018-04-14T02:55:18.446Z,90.08
2018-04-14T02:56:18.364Z,90.37
2018-04-14T02:57:18.267Z,89.89
2018-04-14T02:58:18.308Z,89.59
2018-04-14T02:59:18.227Z,89.01
2018-04-14T03:00:18.921Z,89.36
2018-04-14T03:01:18.709Z,89.40
2018-04-14T03:02:18.181Z,88.78
2018-04-14T03:03:18.140Z,89.07
2018-04-14T03:04:18.126Z,88.73
2018-04-14T03:05:18.229Z,88.73
2018-04-14T03:06:18.030Z,88.82
2018-04-14T03:07:18.570Z,89.01
2018-04-14T03:08:18.506Z,89.11
2018-04-14T03:09:18.511Z,88.92
2018-04-14T03:10:18.274Z,88.53
2018-04-14T03:11:17.946Z,88.73
2018-04-14T03:12:17.878Z,88.63
2018-04-14T03:13:17.832Z,88.73
2018-04-14T03:14:17.830Z,88.05
2018-04-14T03:15:17.873Z,88.53
2018-04-14T03:16:17.900Z,88.59
2018-04-14T03:17:17.778Z,88.43
2018-04-14T03:18:17.754Z,88.24
2018-04-14T03:19:18.203Z,88.24
2018-04-14T03:20:17.681Z,88.34
2018-04-14T03:21:17.680Z,88.05
2018-04-14T03:22:17.657Z,88.24
2018-04-14T03:23:17.543Z,88.24
2018-04-14T03:24:17.527Z,87.62
2018-04-14T03:25:17.976Z,88.39
2018-04-14T03:26:17.500Z,88.20
2018-04-14T03:27:17.497Z,88.59
2018-04-14T03:28:17.490Z,88.20
2018-04-14T03:29:17.433Z,88.68
2018-04-14T03:30:17.366Z,88.59
2018-04-14T03:31:17.848Z,88.59
2018-04-14T03:32:17.433Z,88.59
2018-04-14T03:33:17.318Z,88.78
2018-04-14T03:34:17.286Z,88.39
2018-04-14T03:35:17.351Z,88.53
2018-04-14T03:36:17.209Z,88.59
2018-04-14T03:37:17.511Z,89.01
2018-04-14T03:38:17.236Z,88.59
2018-04-14T03:39:17.191Z,89.11
2018-04-14T03:40:17.151Z,88.87
2018-04-14T03:41:17.213Z,89.36
2018-04-14T03:42:17.149Z,89.45
2018-04-14T03:43:17.560Z,89.55
2018-04-14T03:44:17.433Z,90.03
2018-04-14T03:45:17.175Z,90.33
2018-04-14T03:46:17.572Z,89.89
2018-04-14T03:47:17.575Z,89.40
2018-04-14T03:48:17.405Z,89.45
2018-04-14T03:49:17.008Z,89.59
2018-04-14T03:50:16.960Z,89.79
2018-04-14T03:51:17.296Z,89.89
2018-04-14T03:52:17.222Z,89.98
2018-04-14T03:53:17.265Z,89.69
2018-04-14T03:54:16.905Z,89.40
2018-04-14T03:55:17.126Z,89.69
2018-04-14T03:56:17.150Z,89.31
2018-04-14T03:57:16.694Z,89.17
2018-04-14T03:58:16.658Z,89.50
2018-04-14T03:59:16.579Z,88.82
2018-04-14T04:00:16.583Z,88.92
2018-04-14T04:01:16.548Z,89.07
2018-04-14T04:02:16.580Z,88.97
2018-04-14T04:03:16.586Z,88.82
2018-04-14T04:04:16.536Z,89.21
2018-04-14T04:05:16.471Z,89.01
2018-04-14T04:06:16.451Z,88.82
2018-04-14T04:07:16.419Z,89.11
2018-04-14T04:08:16.351Z,89.40
2018-04-14T04:09:16.341Z,89.21
2018-04-14T04:10:16.258Z,88.92
2018-04-14T04:11:16.223Z,89.01
2018-04-14T04:12:16.494Z,89.01
2018-04-14T04:13:16.205Z,88.82
2018-04-14T04:14:16.322Z,89.21
2018-04-14T04:15:16.335Z,88.82
2018-04-14T04:16:16.331Z,88.82
2018-04-14T04:17:16.083Z,88.53
2018-04-14T04:18:16.201Z,88.92
2018-04-14T04:19:16.255Z,88.53
2018-04-14T04:20:16.105Z,88.34
2018-04-14T04:21:16.009Z,88.63
2018-04-14T04:22:15.940Z,88.73
2018-04-14T04:23:16.031Z,88.82
2018-04-14T04:24:15.944Z,88.92
2018-04-14T04:25:15.954Z,88.24
2018-04-14T04:26:15.845Z,88.63
2018-04-14T04:27:15.813Z,88.34
2018-04-14T04:28:15.826Z,88.34
2018-04-14T04:29:15.743Z,88.15
2018-04-14T04:30:15.862Z,88.63
2018-04-14T04:31:15.678Z,88.63
2018-04-14T04:32:15.683Z,88.67
2018-04-14T04:33:15.644Z,88.15
2018-04-14T04:34:15.642Z,88.24
2018-04-14T04:35:15.868Z,88.24
2018-04-14T04:36:15.555Z,88.24
2018-04-14T04:37:15.519Z,88.24
2018-04-14T04:38:15.524Z,88.43
2018-04-14T04:39:15.496Z,88.43
2018-04-14T04:40:15.450Z,88.77
2018-04-14T04:41:15.520Z,88.73
2018-04-14T04:42:15.400Z,88.63
2018-04-14T04:43:15.378Z,89.11
2018-04-14T04:44:15.344Z,88.73
2018-04-14T04:45:15.347Z,88.73
2018-04-14T04:46:15.437Z,88.34
2018-04-14T04:47:15.266Z,88.63
2018-04-14T04:48:15.337Z,88.43
2018-04-14T04:49:15.187Z,88.24
2018-04-14T04:50:15.202Z,87.76
2018-04-14T04:51:15.345Z,87.27
2018-04-14T04:52:15.106Z,87.76
2018-04-14T04:53:15.082Z,87.66
2018-04-14T04:54:15.069Z,87.37
2018-04-14T04:55:15.075Z,87.57
2018-04-14T04:56:15.188Z,87.37
2018-04-14T04:57:15.029Z,87.27
2018-04-14T04:58:14.940Z,86.99
2018-04-14T04:59:15.324Z,87.37
2018-04-14T05:00:14.915Z,87.27
2018-04-14T05:01:15.025Z,87.37
2018-04-14T05:02:15.471Z,86.89
2018-04-14T05:03:15.164Z,86.99
2018-04-14T05:04:14.827Z,86.69
2018-04-14T05:05:15.095Z,86.60
2018-04-14T05:06:14.815Z,86.69
2018-04-14T05:07:15.106Z,86.41
2018-04-14T05:08:14.768Z,86.69
2018-04-14T05:09:14.693Z,86.69
2018-04-14T05:10:14.632Z,86.79
2018-04-14T05:11:14.973Z,87.18
2018-04-14T05:12:15.122Z,86.51
2018-04-14T05:13:14.631Z,86.21
2018-04-14T05:14:14.533Z,86.21
2018-04-14T05:15:14.508Z,86.21
2018-04-14T05:16:14.637Z,86.11
2018-04-14T05:17:14.454Z,86.21
2018-04-14T05:18:14.577Z,86.11
2018-04-14T05:19:14.578Z,86.31
2018-04-14T05:20:14.640Z,86.21
2018-04-14T05:21:14.497Z,86.31
2018-04-14T05:22:14.309Z,86.02
2018-04-14T05:23:14.286Z,86.11
2018-04-14T05:24:14.388Z,85.63
2018-04-14T05:25:14.252Z,85.83
2018-04-14T05:26:14.179Z,85.63
2018-04-14T05:27:14.154Z,85.73
2018-04-14T05:28:14.150Z,86.02
2018-04-14T05:29:14.108Z,85.44
2018-04-14T05:30:14.078Z,85.53
2018-04-14T05:31:14.080Z,85.63
2018-04-14T05:32:14.036Z,85.93
2018-04-14T05:33:14.018Z,85.83
2018-04-14T05:34:14.049Z,85.44
2018-04-14T05:35:13.955Z,85.35
2018-04-14T05:36:13.959Z,85.25
2018-04-14T05:37:14.059Z,85.44
2018-04-14T05:38:13.852Z,84.86
2018-04-14T05:39:13.991Z,84.91
2018-04-14T05:40:13.853Z,84.67
2018-04-14T05:41:14.109Z,84.91
2018-04-14T05:42:13.779Z,84.57
2018-04-14T05:43:13.724Z,84.67
2018-04-14T05:44:13.792Z,84.67
2018-04-14T05:45:13.730Z,84.57
2018-04-14T05:46:13.650Z,84.19
2018-04-14T05:47:13.717Z,84.28
2018-04-14T05:48:13.951Z,84.19
2018-04-14T05:49:13.833Z,84.38
2018-04-14T05:50:13.870Z,84.09
2018-04-14T05:51:13.815Z,83.85
2018-04-14T05:52:13.499Z,83.95
2018-04-14T05:53:13.533Z,83.41
2018-04-14T05:54:13.636Z,83.41
2018-04-14T05:55:13.894Z,83.41
2018-04-14T05:56:13.393Z,83.56
2018-04-14T05:57:13.374Z,83.80
2018-04-14T05:58:13.314Z,83.31
2018-04-14T05:59:13.326Z,83.31
2018-04-14T06:00:13.312Z,83.41
2018-04-14T06:01:13.492Z,83.22
2018-04-14T06:02:13.437Z,82.98
2018-04-14T06:03:13.297Z,83.31
2018-04-14T06:04:13.153Z,83.31
2018-04-14T06:05:13.144Z,83.27
2018-04-14T06:06:13.106Z,83.27
2018-04-14T06:07:13.131Z,83.12
2018-04-14T06:08:13.055Z,83.12
2018-04-14T06:09:13.366Z,82.98
2018-04-14T06:10:13.085Z,83.37
2018-04-14T06:11:13.033Z,83.08
2018-04-14T06:12:12.970Z,82.40
2018-04-14T06:13:12.926Z,82.98
2018-04-14T06:14:12.889Z,83.08
2018-04-14T06:15:12.901Z,82.54
2018-04-14T06:16:13.293Z,82.15
2018-04-14T06:17:12.904Z,82.45
2018-04-14T06:18:12.812Z,82.21
2018-04-14T06:19:12.768Z,81.63
2018-04-14T06:20:12.752Z,81.92
2018-04-14T06:21:12.882Z,82.02
2018-04-14T06:22:12.809Z,82.02
2018-04-14T06:23:12.641Z,81.92
2018-04-14T06:24:12.666Z,81.34
2018-04-14T06:25:12.763Z,81.34
2018-04-14T06:26:12.595Z,81.92
2018-04-14T06:27:13.042Z,81.29
2018-04-14T06:28:12.576Z,81.53
2018-04-14T06:29:12.494Z,81.63
2018-04-14T06:30:12.452Z,81.73
2018-04-14T06:31:12.394Z,80.95
2018-04-14T06:32:12.397Z,81.05
2018-04-14T06:33:12.491Z,81.15
2018-04-14T06:34:12.421Z,80.95
2018-04-14T06:35:12.330Z,80.57
2018-04-14T06:36:12.268Z,80.57
2018-04-14T06:37:12.291Z,80.18
2018-04-14T06:38:12.348Z,80.18
2018-04-14T06:39:12.215Z,80.47
2018-04-14T06:40:12.245Z,79.99
2018-04-14T06:41:12.366Z,79.70
2018-04-14T06:42:12.391Z,79.80
2018-04-14T06:43:12.394Z,79.70
2018-04-14T06:44:12.084Z,79.70
2018-04-14T06:45:12.017Z,79.41
2018-04-14T06:46:12.020Z,79.80
2018-04-14T06:47:11.994Z,79.02
2018-04-14T06:48:12.038Z,79.31
2018-04-14T06:49:13.122Z,78.92
2018-04-14T06:50:11.920Z,79.22
2018-04-14T06:51:11.859Z,78.54
2018-04-14T06:52:11.848Z,78.15
2018-04-14T06:53:11.917Z,78.54
2018-04-14T06:54:11.813Z,77.96
2018-04-14T06:55:11.783Z,78.15
2018-04-14T06:56:11.729Z,78.44
2018-04-14T06:57:11.727Z,78.15
2018-04-14T06:58:11.901Z,77.86
2018-04-14T06:59:11.641Z,78.06
2018-04-14T07:00:11.617Z,77.67
2018-04-14T07:01:11.589Z,77.38
2018-04-14T07:02:11.587Z,77.48
2018-04-14T07:03:11.662Z,77.00
2018-04-14T07:04:11.515Z,76.80
2018-04-14T07:05:11.484Z,77.00
2018-04-14T07:06:11.470Z,76.42
2018-04-14T07:07:11.643Z,76.70
2018-04-14T07:08:11.400Z,76.61
2018-04-14T07:09:11.500Z,76.70
2018-04-14T07:10:11.364Z,76.90
2018-04-14T07:11:11.494Z,75.84
2018-04-14T07:12:11.299Z,76.22
2018-04-14T07:13:11.263Z,76.03
2018-04-14T07:14:11.259Z,76.03
2018-04-14T07:15:11.291Z,75.93
2018-04-14T07:16:11.182Z,75.45
2018-04-14T07:17:11.180Z,75.84
2018-04-14T07:18:11.122Z,75.45
2018-04-14T07:19:11.113Z,75.54
2018-04-14T07:20:11.120Z,75.35
2018-04-14T07:21:11.036Z,74.77
2018-04-14T07:22:11.085Z,74.29
2018-04-14T07:23:11.061Z,74.58
2018-04-14T07:24:10.971Z,74.77
2018-04-14T07:25:11.083Z,74.87
2018-04-14T07:26:10.904Z,74.77
2018-04-14T07:27:10.882Z,74.68
2018-04-14T07:28:10.854Z,74.38
2018-04-14T07:29:10.832Z,74.58
2018-04-14T07:30:10.971Z,74.19
2018-04-14T07:31:10.787Z,74.29
2018-04-14T07:32:10.788Z,73.80
2018-04-14T07:33:10.704Z,73.90
2018-04-14T07:34:10.702Z,73.90
2018-04-14T07:35:10.764Z,74.19
2018-04-14T07:36:10.660Z,74.19
2018-04-14T07:37:10.602Z,73.71
2018-04-14T07:38:10.581Z,73.52
2018-04-14T07:39:10.565Z,73.32
2018-04-14T07:40:10.699Z,73.13
2018-04-14T07:41:10.492Z,73.42
2018-04-14T07:42:10.465Z,72.74
2018-04-14T07:43:10.460Z,72.84
2018-04-14T07:44:10.405Z,72.74
2018-04-14T07:45:10.400Z,72.45
2018-04-14T07:46:10.637Z,72.45
2018-04-14T07:47:10.406Z,72.45
2018-04-14T07:48:10.306Z,72.94
2018-04-14T07:49:10.287Z,72.36
2018-04-14T07:50:10.326Z,72.16
2018-04-14T07:51:10.217Z,72.26
2018-04-14T07:52:10.249Z,72.45
2018-04-14T07:53:10.217Z,71.97
2018-04-14T07:54:10.148Z,72.45
2018-04-14T07:55:10.109Z,71.88
2018-04-14T07:56:10.088Z,72.16
2018-04-14T07:57:10.110Z,71.58
2018-04-14T07:58:10.049Z,71.68
2018-04-14T07:59:10.001Z,72.06
2018-04-14T08:00:10.048Z,72.16
2018-04-14T08:01:09.950Z,71.48
2018-04-14T08:02:09.963Z,71.78
2018-04-14T08:03:09.886Z,71.30
2018-04-14T08:04:09.942Z,71.39
2018-04-14T08:05:09.816Z,71.39
2018-04-14T08:06:09.799Z,71.20
2018-04-14T08:07:09.936Z,70.90
2018-04-14T08:08:09.740Z,71.10
2018-04-14T08:09:09.728Z,70.81
2018-04-14T08:10:09.697Z,71.10
2018-04-14T08:11:09.684Z,71.20
2018-04-14T08:12:09.716Z,71.00
2018-04-14T08:13:09.624Z,71.00
2018-04-14T08:14:09.590Z,71.20
2018-04-14T08:15:09.592Z,71.20
2018-04-14T08:16:09.532Z,71.20
2018-04-14T08:17:09.553Z,70.81
2018-04-14T08:18:09.515Z,71.10
2018-04-14T08:19:09.490Z,71.00
2018-04-14T08:20:09.442Z,70.87
2018-04-14T08:21:09.388Z,71.20
2018-04-14T08:22:09.361Z,71.00
2018-04-14T08:23:09.486Z,71.26
2018-04-14T08:24:09.600Z,71.26
2018-04-14T08:25:09.271Z,70.90
2018-04-14T08:26:09.268Z,71.06
2018-04-14T08:27:09.254Z,71.88
2018-04-14T08:28:09.187Z,71.64
2018-04-14T08:29:09.228Z,71.58
2018-04-14T08:30:09.145Z,71.97
2018-04-14T08:31:09.093Z,71.78
2018-04-14T08:32:09.080Z,71.97
2018-04-14T08:33:09.054Z,72.26
2018-04-14T08:34:09.105Z,72.52
2018-04-14T08:35:09.019Z,72.16
2018-04-14T08:36:08.958Z,72.13
2018-04-14T08:37:08.940Z,72.03
2018-04-14T08:38:08.914Z,72.26
2018-04-14T08:39:09.003Z,72.26
2018-04-14T08:40:08.869Z,71.94
2018-04-14T08:41:08.829Z,71.97
2018-04-14T08:42:08.819Z,72.13
2018-04-14T08:43:08.788Z,71.97
2018-04-14T08:44:08.991Z,72.13
2018-04-14T08:45:08.728Z,71.94
2018-04-14T08:46:08.687Z,72.03
2018-04-14T08:47:08.730Z,71.97
2018-04-14T08:48:08.624Z,72.26
2018-04-14T08:49:08.775Z,72.06
2018-04-14T08:50:08.601Z,71.94
2018-04-14T08:51:08.550Z,72.22
2018-04-14T08:52:08.568Z,72.36
2018-04-14T08:53:08.502Z,72.13
2018-04-14T08:54:08.473Z,72.06
2018-04-14T08:55:08.496Z,71.97
2018-04-14T08:56:08.427Z,71.94
2018-04-14T08:57:08.489Z,71.84
2018-04-14T08:58:08.373Z,71.94
2018-04-14T08:59:08.363Z,71.97
2018-04-14T09:00:08.480Z,72.06
2018-04-14T09:01:08.323Z,71.97
2018-04-14T09:02:08.264Z,72.26
2018-04-14T09:03:08.226Z,72.26
2018-04-14T09:04:08.187Z,72.06
2018-04-14T09:05:08.331Z,72.36
2018-04-14T09:06:08.174Z,72.36
2018-04-14T09:07:08.107Z,72.36
2018-04-14T09:08:08.599Z,72.45
2018-04-14T09:09:08.241Z,72.36
2018-04-14T09:10:09.241Z,72.36
2018-04-14T09:11:08.033Z,72.74
2018-04-14T09:12:08.039Z,72.78
2018-04-14T09:13:07.971Z,72.78
2018-04-14T09:14:07.978Z,72.64
2018-04-14T09:15:07.906Z,72.55
2018-04-14T09:16:07.964Z,72.55
2018-04-14T09:17:07.830Z,72.78
2018-04-14T09:18:07.823Z,72.88
2018-04-14T09:19:07.835Z,72.88
2018-04-14T09:20:07.790Z,72.49
2018-04-14T09:21:07.828Z,72.58
2018-04-14T09:22:07.729Z,72.68
2018-04-14T09:23:07.673Z,72.68
2018-04-14T09:24:07.686Z,72.78
2018-04-14T09:25:07.639Z,72.78
2018-04-14T09:26:07.667Z,72.10
2018-04-14T09:27:07.605Z,72.20
2018-04-14T09:28:07.526Z,72.30
2018-04-14T09:29:07.524Z,72.68
2018-04-14T09:30:07.471Z,72.30
2018-04-14T09:31:07.454Z,72.30
2018-04-14T09:32:07.486Z,72.20
2018-04-14T09:33:07.407Z,72.20
2018-04-14T09:34:07.392Z,72.30
2018-04-14T09:35:07.376Z,72.10
2018-04-14T09:36:07.319Z,72.10
2018-04-14T09:37:07.360Z,71.91
2018-04-14T09:38:07.279Z,72.20
2018-04-14T09:39:07.253Z,72.20
2018-04-14T09:40:07.209Z,72.20
2018-04-14T09:41:07.185Z,72.00
2018-04-14T09:42:07.269Z,72.00
2018-04-14T09:43:07.128Z,71.91
2018-04-14T09:44:07.082Z,71.91
2018-04-14T09:45:07.085Z,71.33
2018-04-14T09:46:07.058Z,70.94
2018-04-14T09:47:07.187Z,71.14
2018-04-14T09:48:06.998Z,71.04
2018-04-14T09:49:06.962Z,71.23
2018-04-14T09:50:07.077Z,71.23
2018-04-14T09:51:06.897Z,71.04
2018-04-14T09:52:07.042Z,70.75
2018-04-14T09:53:06.840Z,70.94
2018-04-14T09:54:06.820Z,71.04
2018-04-14T09:55:06.809Z,71.04
2018-04-14T09:56:06.777Z,71.04
2018-04-14T09:57:06.752Z,70.75
2018-04-14T09:58:06.815Z,70.75
2018-04-14T09:59:06.908Z,70.75
2018-04-14T10:00:06.664Z,70.75
2018-04-14T10:01:06.630Z,70.75
2018-04-14T10:02:06.605Z,70.75
2018-04-14T10:03:06.673Z,71.04
2018-04-14T10:04:06.604Z,71.14
2018-04-14T10:05:06.522Z,70.75
2018-04-14T10:06:06.502Z,70.26
2018-04-14T10:07:06.647Z,70.46
2018-04-14T10:08:06.455Z,70.65
2018-04-14T10:09:06.422Z,70.65
2018-04-14T10:10:06.383Z,70.56
2018-04-14T10:11:06.349Z,70.56
2018-04-14T10:12:06.324Z,70.56
2018-04-14T10:13:06.333Z,70.75
2018-04-14T10:14:06.378Z,70.65
2018-04-14T10:15:06.253Z,70.94
2018-04-14T10:16:06.215Z,70.94
2018-04-14T10:17:06.254Z,70.75
2018-04-14T10:18:06.182Z,70.56
2018-04-14T10:19:06.237Z,70.84
2018-04-14T10:20:06.105Z,70.75
2018-04-14T10:21:06.115Z,70.26
2018-04-14T10:22:06.090Z,70.26
2018-04-14T10:23:06.048Z,70.36
2018-04-14T10:24:06.103Z,70.65
2018-04-14T10:25:05.980Z,70.17
2018-04-14T10:26:05.930Z,70.84
2018-04-14T10:27:05.975Z,70.65
2018-04-14T10:28:05.906Z,70.75
2018-04-14T10:29:06.020Z,70.56
2018-04-14T10:30:05.846Z,70.56
2018-04-14T10:31:05.830Z,70.36
2018-04-14T10:32:05.857Z,70.56
2018-04-14T10:33:05.769Z,70.65
2018-04-14T10:34:05.886Z,70.75
2018-04-14T10:35:05.877Z,70.84
2018-04-14T10:36:05.683Z,70.46
2018-04-14T10:37:05.645Z,70.36
2018-04-14T10:38:05.705Z,70.36
2018-04-14T10:39:05.603Z,70.36
2018-04-14T10:40:05.832Z,70.65
2018-04-14T10:41:05.565Z,70.56
2018-04-14T10:42:05.610Z,70.65
2018-04-14T10:43:05.516Z,70.17
2018-04-14T10:44:05.451Z,70.84
2018-04-14T10:45:05.461Z,70.65
2018-04-14T10:46:05.616Z,70.36
2018-04-14T10:47:05.375Z,70.17
2018-04-14T10:48:05.348Z,70.65
2018-04-14T10:49:05.331Z,71.04
2018-04-14T10:50:05.305Z,71.04
2018-04-14T10:51:05.270Z,71.04
2018-04-14T10:52:05.330Z,70.56
2018-04-14T10:53:05.224Z,70.94
2018-04-14T10:54:05.208Z,71.23
2018-04-14T10:55:05.155Z,70.94
2018-04-14T10:56:05.125Z,71.04
2018-04-14T10:57:05.196Z,70.65
2018-04-14T10:58:05.069Z,70.75
2018-04-14T10:59:05.046Z,70.75
2018-04-14T11:00:05.005Z,70.94
2018-04-14T11:01:04.968Z,70.75
2018-04-14T11:02:05.139Z,71.14
2018-04-14T11:03:04.930Z,71.33
2018-04-14T11:04:04.926Z,71.23
2018-04-14T11:05:04.896Z,70.94
2018-04-14T11:06:04.858Z,70.75
2018-04-14T11:07:04.876Z,70.94
2018-04-14T11:08:04.932Z,70.75
2018-04-14T11:09:04.809Z,70.65
2018-04-14T11:10:04.758Z,70.84
2018-04-14T11:11:04.779Z,70.84
2018-04-14T11:12:04.693Z,70.75
2018-04-14T11:13:04.811Z,70.75
2018-04-14T11:14:04.653Z,70.84
2018-04-14T11:15:04.593Z,70.84
2018-04-14T11:16:04.586Z,70.75
2018-04-14T11:17:04.676Z,70.84
2018-04-14T11:18:04.539Z,70.94
2018-04-14T11:19:04.743Z,70.65
2018-04-14T11:20:04.474Z,70.65
2018-04-14T11:21:04.461Z,71.04
2018-04-14T11:22:04.450Z,70.56
2018-04-14T11:23:04.512Z,70.75
2018-04-14T11:24:04.345Z,70.84
2018-04-14T11:25:04.653Z,71.14
2018-04-14T11:26:04.291Z,70.65
2018-04-14T11:27:04.415Z,70.75
2018-04-14T11:28:04.291Z,70.94
2018-04-14T11:29:04.251Z,71.23
2018-04-14T11:30:04.308Z,70.75
2018-04-14T11:31:04.185Z,70.65
2018-04-14T11:32:04.140Z,70.65
2018-04-14T11:33:04.123Z,71.04
2018-04-14T11:34:04.114Z,70.94
2018-04-14T11:35:04.174Z,70.65
2018-04-14T11:36:04.037Z,70.56
2018-04-14T11:37:04.005Z,71.04
2018-04-14T11:38:03.989Z,70.94
2018-04-14T11:39:03.956Z,70.65
2018-04-14T11:40:04.067Z,70.75
2018-04-14T11:41:04.265Z,70.50
2018-04-14T11:42:03.960Z,70.20
2018-04-14T11:43:04.059Z,70.68
2018-04-14T11:44:03.862Z,70.40
2018-04-14T11:45:03.821Z,70.78
2018-04-14T11:46:03.844Z,70.68
2018-04-14T11:47:03.729Z,70.20
2018-04-14T11:48:03.817Z,70.40
2018-04-14T11:49:03.690Z,70.01
2018-04-14T11:50:03.656Z,70.10
2018-04-14T11:51:03.702Z,70.01
2018-04-14T11:52:03.588Z,70.10
2018-04-14T11:53:03.579Z,70.10
2018-04-14T11:54:04.348Z,70.20
2018-04-14T11:55:03.959Z,70.20
2018-04-14T11:56:03.568Z,70.50
2018-04-14T11:57:03.542Z,70.40
2018-04-14T11:58:03.560Z,70.30
2018-04-14T11:59:03.413Z,70.10
2018-04-14T12:00:03.406Z,70.20
2018-04-14T12:01:03.361Z,69.92
2018-04-14T12:02:03.547Z,69.82
2018-04-14T12:03:03.440Z,69.82
2018-04-14T12:04:03.362Z,69.72
2018-04-14T12:05:03.248Z,70.20
2018-04-14T12:06:03.206Z,70.20
2018-04-14T12:07:03.275Z,70.04
2018-04-14T12:08:03.142Z,69.53
2018-04-14T12:09:03.135Z,69.43
2018-04-14T12:10:03.114Z,69.66
2018-04-14T12:11:03.107Z,69.17
2018-04-14T12:12:03.098Z,69.37
2018-04-14T12:13:03.219Z,69.56
2018-04-14T12:14:02.994Z,69.66
2018-04-14T12:15:02.989Z,69.66
2018-04-14T12:16:02.931Z,68.98
2018-04-14T12:17:02.935Z,68.98
2018-04-14T12:18:03.239Z,68.69
2018-04-14T12:19:02.982Z,68.88
2018-04-14T12:20:02.842Z,68.98
2018-04-14T12:21:02.805Z,68.59
2018-04-14T12:22:02.799Z,68.49
2018-04-14T12:23:02.732Z,68.11
2018-04-14T12:24:03.033Z,68.11
2018-04-14T12:25:02.699Z,67.14
2018-04-14T12:26:02.672Z,67.72
2018-04-14T12:27:02.750Z,67.05
2018-04-14T12:28:02.769Z,67.14
2018-04-14T12:29:02.756Z,67.14
2018-04-14T12:30:02.757Z,66.66
2018-04-14T12:31:02.548Z,65.98
2018-04-14T12:32:02.548Z,66.17
2018-04-14T12:33:02.497Z,65.88
2018-04-14T12:34:02.519Z,65.53
2018-04-14T12:35:02.446Z,65.53
2018-04-14T12:36:02.510Z,65.24
2018-04-14T12:37:02.369Z,65.34
2018-04-14T12:38:02.332Z,65.34
2018-04-14T12:39:02.332Z,65.43
2018-04-14T12:40:02.276Z,66.11
2018-04-14T12:41:02.369Z,66.88
2018-04-14T12:42:02.222Z,66.88
2018-04-14T12:43:02.236Z,67.11
2018-04-14T12:44:02.188Z,67.02
2018-04-14T12:45:02.142Z,67.40
2018-04-14T12:46:02.203Z,67.40
2018-04-14T12:47:02.240Z,67.40
2018-04-14T12:48:02.074Z,67.79
2018-04-14T12:49:02.038Z,68.08
2018-04-14T12:50:02.031Z,69.24
2018-04-14T12:51:02.027Z,69.24
2018-04-14T12:52:02.137Z,69.92